Port Moody, Canada
Current Conditions -  °F | °C
As of 1:00 AM on Friday 24 Oct 2014 (Local Time) from CYVR Reporting Station
Light Rain Light Rain  
Wind Chill: 46°   Ceiling: 8200
Heat Index: 48°   Visibility: 15mi
Dew Point: 46°   Wind: 6mph
Humidity: 93%   Direction: 60°ENE
Pressure: 30.01"   Gusts: NA
Location:  49.28°N, 122.83°W
Report Text: CYVR 240800Z 06005KT 15SM -RA FEW040 SCT057 BKN082 BKN140 09/08 A3001 RMK SC1SC2AC3AC1 SLP162
Loading
Personal Weather Stations






























Interactive Weather Map
Tropical Storm Tracking
New forecast layout! Learn more

10-Day Weather Forecast

Advertisements
Track Severe Weather on mobile